This is the latest recevied weather packets stored in our database for station/object K3BAK-13. If no packets are shown the sender has not sent any weather packets the latest 10 day(s).
| Time | Temp. | Humidity | Pressure | Rain* | Wind** | Luminosity | Snow |
|---|---|---|---|---|---|---|---|
| 1777944060 | 18.89° C | 59% | 1009 hPa | 0 mm | - | - | - |
| 1777943160 | 19.44° C | 58% | 1008.9 hPa | 0 mm | - | - | - |
| 1777939271 | 20° C | 56% | 1008.2 hPa | 0 mm | - | - | - |
| 1777938359 | 20.56° C | 55% | 1008.4 hPa | 0 mm | - | - | - |
| 1777937159 | 20.56° C | 55% | 1008.3 hPa | 0 mm | - | - | - |
| 1777935961 | 21.11° C | 54% | 1008.4 hPa | 0 mm | - | - | - |
| 1777934460 | 21.11° C | 53% | 1008.4 hPa | 0 mm | - | - | - |
| 1777933558 | 21.67° C | 51% | 1008.3 hPa | 0 mm | - | - | - |
| 1777932960 | 21.67° C | 51% | 1008.5 hPa | 0 mm | - | - | - |
| 1777932357 | 21.67° C | 51% | 1008.4 hPa | 0 mm | - | - | - |
| 1777929660 | 22.78° C | 51% | 1008.3 hPa | 0 mm | - | - | - |
| 1777929360 | 22.22° C | 50% | 1008.3 hPa | 0 mm | - | - | - |
| 1777927569 | 22.78° C | 47% | 1008.3 hPa | 0 mm | - | - | - |
| 1777926359 | 22.78° C | 48% | 1008.3 hPa | 0 mm | - | - | - |
| 1777925756 | 22.22° C | 49% | 1008.4 hPa | 0 mm | - | - | - |
| 1777924558 | 21.67° C | 50% | 1008.6 hPa | 0 mm | - | - | - |
| 1777924257 | 22.22° C | 50% | 1008.7 hPa | 0 mm | - | - | - |
| 1777923659 | 22.22° C | 49% | 1008.6 hPa | 0 mm | - | - | - |
| 1777922459 | 22.78° C | 50% | 1008.9 hPa | 0 mm | - | - | - |
| 1777921859 | 22.22° C | 50% | 1009 hPa | 0 mm | - | - | - |
| 1777919462 | 21.67° C | 48% | 1009.3 hPa | 0 mm | - | - | - |
| 1777918569 | 21.67° C | 50% | 1009.3 hPa | 0 mm | - | - | - |
| 1777914060 | 20° C | 51% | 1010.4 hPa | 0 mm | - | - | - |
| 1777912270 | 18.89° C | 51% | 1010.9 hPa | 0 mm | - | - | - |
| 1777910762 | 17.78° C | 53% | 1011.1 hPa | 0 mm | - | - | - |
* Rain latest hour (hover to see other rain measurements)
** Current wind speed in m/s (hover to see current wind gust speed)